createdAt,value
2019-02-15T00:01:28.299Z,18.03
2019-02-15T00:04:13.324Z,14.43
2019-02-15T00:06:58.127Z,19.33
2019-02-15T00:09:42.962Z,19.73
2019-02-15T00:12:27.745Z,18.10
2019-02-15T00:15:12.573Z,18.60
2019-02-15T00:17:59.392Z,20.03
2019-02-15T00:20:52.238Z,34.97
2019-02-15T00:23:36.937Z,16.23
2019-02-15T00:26:22.115Z,18.10
2019-02-15T00:29:06.844Z,20.83
2019-02-15T00:31:51.692Z,29.67
2019-02-15T00:34:36.473Z,17.33
2019-02-15T00:37:21.325Z,23.30
2019-02-15T00:40:06.278Z,19.97
2019-02-15T00:42:50.904Z,19.47
2019-02-15T00:45:46.592Z,18.80
2019-02-15T00:48:31.412Z,17.87
2019-02-15T00:51:18.100Z,18.40
2019-02-15T00:54:19.129Z,17.33
2019-02-15T00:57:24.204Z,26.23
2019-02-15T01:00:16.698Z,16.83
2019-02-15T01:03:23.269Z,18.27
2019-02-15T01:06:15.666Z,20.13
2019-02-15T01:09:14.476Z,21.63
2019-02-15T01:12:03.976Z,22.37
2019-02-15T01:14:51.879Z,16.47
2019-02-15T01:17:36.746Z,17.30
2019-02-15T01:20:24.541Z,18.87
2019-02-15T01:23:09.514Z,18.67
2019-02-15T01:25:56.201Z,24.37
2019-02-15T01:28:49.196Z,21.10
2019-02-15T01:31:35.789Z,19.03
2019-02-15T01:34:37.521Z,15.87
2019-02-15T01:37:32.980Z,19.43
2019-02-15T01:40:25.484Z,70.67
2019-02-15T01:43:29.042Z,18.30
2019-02-15T01:46:24.350Z,26.20
2019-02-15T01:49:09.170Z,19.23
2019-02-15T01:51:56.967Z,17.57
2019-02-15T01:54:41.805Z,18.87
2019-02-15T01:57:30.041Z,19.93
2019-02-15T02:00:18.989Z,29.77
2019-02-15T02:03:03.996Z,20.03
2019-02-15T02:05:48.928Z,18.27
2019-02-15T02:08:36.653Z,19.47
2019-02-15T02:11:21.498Z,21.87
2019-02-15T02:14:09.592Z,19.13
2019-02-15T02:16:54.380Z,23.80
2019-02-15T02:19:42.454Z,17.73
2019-02-15T02:22:27.318Z,19.70
2019-02-15T02:25:12.334Z,18.67
2019-02-15T02:27:57.308Z,18.57
2019-02-15T02:30:42.016Z,19.27
2019-02-15T02:33:26.996Z,18.07
2019-02-15T02:36:11.798Z,21.20
2019-02-15T02:38:56.695Z,17.03
2019-02-15T02:41:44.619Z,18.80
2019-02-15T02:44:29.453Z,27.50
2019-02-15T02:47:17.662Z,17.77
2019-02-15T02:50:06.151Z,17.97
2019-02-15T02:53:00.315Z,21.27
2019-02-15T02:55:48.234Z,16.30
2019-02-15T02:58:33.133Z,19.00
2019-02-15T03:01:24.281Z,18.13
2019-02-15T03:04:09.583Z,20.93
2019-02-15T03:06:54.117Z,20.20
2019-02-15T03:09:39.016Z,21.63
2019-02-15T03:12:23.767Z,17.17
2019-02-15T03:15:11.662Z,17.20
2019-02-15T03:17:56.633Z,15.30
2019-02-15T03:20:41.408Z,17.70
2019-02-15T03:23:26.347Z,17.67
2019-02-15T03:26:11.164Z,19.47
2019-02-15T03:28:55.995Z,15.43
2019-02-15T03:31:50.114Z,16.60
2019-02-15T03:34:36.425Z,18.07
2019-02-15T03:37:23.102Z,20.03
2019-02-15T03:40:09.840Z,18.23
2019-02-15T03:42:57.799Z,17.50
2019-02-15T03:45:43.533Z,16.43
2019-02-15T03:48:28.539Z,17.97
2019-02-15T03:51:13.388Z,18.27
2019-02-15T03:54:01.453Z,16.97
2019-02-15T03:56:46.365Z,20.03
2019-02-15T03:59:30.974Z,17.70
2019-02-15T04:02:31.281Z,16.37
2019-02-15T04:05:25.371Z,22.63
2019-02-15T04:08:13.423Z,17.03
2019-02-15T04:10:58.175Z,14.43
2019-02-15T04:13:55.532Z,14.50
2019-02-15T04:16:52.803Z,17.97
2019-02-15T04:19:40.794Z,13.97
2019-02-15T04:22:25.572Z,14.97
2019-02-15T04:25:10.716Z,15.70
2019-02-15T04:28:04.998Z,14.87
2019-02-15T04:30:53.152Z,14.80
2019-02-15T04:33:37.836Z,17.97
2019-02-15T04:36:22.840Z,18.03
2019-02-15T04:39:07.476Z,17.80
2019-02-15T04:41:55.510Z,17.40
2019-02-15T04:44:42.883Z,16.13
2019-02-15T04:47:27.347Z,17.43
2019-02-15T04:50:12.170Z,19.07
2019-02-15T04:52:56.923Z,16.63
2019-02-15T04:55:41.838Z,18.83
2019-02-15T04:58:26.724Z,15.33
2019-02-15T05:01:14.667Z,16.93
2019-02-15T05:03:59.641Z,19.17
2019-02-15T05:06:44.445Z,14.50
2019-02-15T05:09:32.333Z,16.40
2019-02-15T05:12:17.426Z,16.47
2019-02-15T05:15:02.908Z,16.47
2019-02-15T05:17:47.596Z,15.63
2019-02-15T05:20:32.491Z,16.63
2019-02-15T05:23:17.210Z,16.80
2019-02-15T05:26:02.212Z,15.13
2019-02-15T05:28:47.144Z,20.00
2019-02-15T05:31:32.094Z,14.37
2019-02-15T05:34:16.914Z,12.87
2019-02-15T05:37:01.921Z,12.80
2019-02-15T05:39:46.790Z,16.20
2019-02-15T05:42:46.973Z,14.90
2019-02-15T05:45:34.980Z,17.43
2019-02-15T05:48:22.809Z,18.83
2019-02-15T05:51:07.604Z,14.90
2019-02-15T05:54:01.752Z,17.73
2019-02-15T05:57:05.273Z,16.80
2019-02-15T05:59:50.021Z,11.80
2019-02-15T06:02:34.900Z,15.37
2019-02-15T06:05:35.067Z,17.33
2019-02-15T06:08:25.879Z,12.17
2019-02-15T06:11:10.641Z,15.03
2019-02-15T06:13:58.392Z,14.03
2019-02-15T06:16:43.144Z,13.77
2019-02-15T06:19:46.404Z,13.97
2019-02-15T06:22:40.580Z,15.27
2019-02-15T06:25:28.261Z,14.30
2019-02-15T06:28:13.085Z,15.43
2019-02-15T06:31:00.642Z,15.00
2019-02-15T06:33:45.583Z,13.47
2019-02-15T06:36:42.689Z,12.50
2019-02-15T06:39:30.705Z,13.00
2019-02-15T06:42:18.493Z,22.27
2019-02-15T06:45:04.746Z,15.33
2019-02-15T06:47:49.860Z,13.70
2019-02-15T06:50:37.640Z,14.63
2019-02-15T06:53:22.672Z,15.33
2019-02-15T06:56:07.328Z,11.17
2019-02-15T06:58:56.988Z,14.07
2019-02-15T07:01:52.577Z,12.73
2019-02-15T07:04:48.179Z,14.40
2019-02-15T07:07:32.819Z,11.17
2019-02-15T07:10:17.691Z,13.17
2019-02-15T07:13:02.609Z,12.83
2019-02-15T07:16:05.681Z,26.83
2019-02-15T07:19:09.203Z,14.40
2019-02-15T07:21:54.046Z,14.23
2019-02-15T07:24:41.764Z,18.70
2019-02-15T07:27:26.803Z,16.63
2019-02-15T07:30:12.634Z,13.60
2019-02-15T07:32:57.599Z,14.43
2019-02-15T07:35:42.367Z,19.63
2019-02-15T07:38:30.244Z,14.20
2019-02-15T07:41:15.237Z,13.37
2019-02-15T07:43:59.910Z,23.30
2019-02-15T07:46:51.023Z,15.07
2019-02-15T07:49:54.330Z,9.60
2019-02-15T07:52:54.664Z,11.53
2019-02-15T07:55:51.647Z,13.23
2019-02-15T07:58:39.640Z,12.83
2019-02-15T08:01:27.448Z,9.97
2019-02-15T08:04:27.877Z,11.50
2019-02-15T08:07:19.105Z,10.80
2019-02-15T08:10:10.375Z,16.93
2019-02-15T08:12:58.455Z,12.13
2019-02-15T08:15:51.333Z,14.67
2019-02-15T08:18:49.316Z,6.30
2019-02-15T08:21:34.258Z,11.50
2019-02-15T08:24:18.896Z,8.33
2019-02-15T08:27:22.324Z,9.07
2019-02-15T08:30:19.575Z,11.37
2019-02-15T08:33:04.729Z,10.90
2019-02-15T08:35:49.363Z,7.90
2019-02-15T08:38:37.239Z,9.13
2019-02-15T08:41:22.324Z,8.97
2019-02-15T08:44:07.256Z,10.33
2019-02-15T08:47:10.756Z,8.67
2019-02-15T08:49:55.436Z,7.87
2019-02-15T08:52:55.740Z,6.27
2019-02-15T08:55:47.021Z,9.17
2019-02-15T08:58:31.689Z,14.07
2019-02-15T09:01:19.484Z,7.13
2019-02-15T09:04:23.436Z,6.40
2019-02-15T09:07:08.328Z,8.00
2019-02-15T09:09:53.172Z,9.87
2019-02-15T09:12:56.833Z,9.87
2019-02-15T09:15:41.472Z,9.30
2019-02-15T09:18:26.521Z,13.00
2019-02-15T09:21:11.414Z,10.07
2019-02-15T09:23:56.252Z,5.63
2019-02-15T09:27:01.664Z,7.77
2019-02-15T09:29:55.781Z,7.53
2019-02-15T09:32:59.251Z,7.43
2019-02-15T09:35:59.411Z,5.67
2019-02-15T09:38:47.133Z,5.73
2019-02-15T09:41:32.285Z,14.10
2019-02-15T09:44:16.963Z,7.27
2019-02-15T09:47:05.018Z,5.97
2019-02-15T09:49:49.864Z,6.60
2019-02-15T09:52:34.814Z,6.00
2019-02-15T09:55:38.167Z,5.97
2019-02-15T09:58:22.917Z,6.90
2019-02-15T10:01:07.852Z,9.07
2019-02-15T10:03:56.088Z,9.13
2019-02-15T10:06:43.967Z,7.77
2019-02-15T10:09:28.700Z,7.10
2019-02-15T10:12:23.178Z,6.03
2019-02-15T10:15:09.597Z,6.67
2019-02-15T10:17:54.728Z,6.53
2019-02-15T10:20:39.547Z,11.37
2019-02-15T10:23:36.741Z,6.87
2019-02-15T10:26:40.154Z,8.90
2019-02-15T10:29:25.117Z,7.00
2019-02-15T10:32:28.900Z,6.60
2019-02-15T10:35:13.777Z,7.20
2019-02-15T10:38:01.628Z,8.13
2019-02-15T10:40:46.547Z,23.10
2019-02-15T10:43:31.531Z,8.27
2019-02-15T10:46:16.424Z,6.00
2019-02-15T10:49:04.479Z,4.93
2019-02-15T10:51:49.250Z,4.63
2019-02-15T10:54:46.976Z,4.87
2019-02-15T10:57:35.300Z,7.50
2019-02-15T11:00:39.610Z,7.60
2019-02-15T11:03:27.246Z,7.83
2019-02-15T11:06:12.324Z,6.27
2019-02-15T11:09:16.490Z,4.97
2019-02-15T11:12:13.973Z,4.57
2019-02-15T11:14:58.728Z,6.13
2019-02-15T11:17:46.631Z,4.60
2019-02-15T11:20:34.928Z,6.90
2019-02-15T11:23:22.810Z,3.90
2019-02-15T11:26:07.625Z,5.90
2019-02-15T11:29:07.886Z,4.03
2019-02-15T11:32:02.097Z,7.80
2019-02-15T11:35:11.603Z,3.87
2019-02-15T11:37:56.544Z,5.33
2019-02-15T11:40:44.467Z,4.57
2019-02-15T11:43:29.448Z,5.63
2019-02-15T11:46:14.370Z,4.53
2019-02-15T11:49:11.400Z,3.93
2019-02-15T11:51:56.315Z,8.70
2019-02-15T11:54:44.244Z,10.67
2019-02-15T11:57:32.229Z,3.67
2019-02-15T12:00:23.132Z,3.60
2019-02-15T12:03:08.311Z,4.67
2019-02-15T12:06:08.505Z,4.03
2019-02-15T12:09:12.103Z,5.13
2019-02-15T12:11:56.939Z,3.33
2019-02-15T12:15:00.717Z,4.60
2019-02-15T12:17:45.701Z,3.37
2019-02-15T12:20:30.565Z,3.57
2019-02-15T12:23:34.123Z,4.47
2019-02-15T12:26:31.216Z,7.53
2019-02-15T12:29:35.072Z,4.27
2019-02-15T12:32:20.023Z,3.60
2019-02-15T12:35:06.234Z,4.57
2019-02-15T12:37:50.886Z,5.90
2019-02-15T12:40:38.727Z,3.37
2019-02-15T12:43:23.583Z,4.33
2019-02-15T12:46:18.012Z,5.47
2019-02-15T12:49:02.731Z,3.87
2019-02-15T12:51:47.579Z,4.63
2019-02-15T12:54:35.376Z,4.37
2019-02-15T12:57:20.353Z,13.13
2019-02-15T13:00:08.820Z,5.80
2019-02-15T13:02:53.462Z,6.27
2019-02-15T13:05:38.316Z,5.77
2019-02-15T13:08:38.629Z,7.47
2019-02-15T13:11:42.557Z,4.57
2019-02-15T13:14:50.461Z,4.00
2019-02-15T13:17:35.015Z,7.43
2019-02-15T13:20:22.894Z,5.70
2019-02-15T13:23:07.760Z,5.83
2019-02-15T13:25:52.573Z,6.43
2019-02-15T13:28:37.433Z,5.70
2019-02-15T13:31:25.175Z,9.90
2019-02-15T13:34:10.191Z,6.43
2019-02-15T13:37:13.601Z,5.47
2019-02-15T13:40:08.338Z,6.40
2019-02-15T13:42:53.361Z,5.15
2019-02-15T13:45:38.007Z,4.90
2019-02-15T13:48:42.066Z,3.50
2019-02-15T13:51:26.668Z,4.65
2019-02-15T13:54:14.462Z,8.10
2019-02-15T13:56:59.461Z,4.40
2019-02-15T13:59:44.277Z,5.05
2019-02-15T14:02:32.177Z,3.37
2019-02-15T14:05:17.106Z,5.90
2019-02-15T14:08:01.867Z,8.60
2019-02-15T14:11:05.687Z,4.97
2019-02-15T14:13:50.788Z,6.97
2019-02-15T14:16:54.145Z,16.23
2019-02-15T14:19:48.448Z,7.37
2019-02-15T14:22:33.305Z,7.37
2019-02-15T14:25:21.421Z,7.50
2019-02-15T14:28:18.573Z,5.28
2019-02-15T14:31:12.863Z,6.42
2019-02-15T14:34:16.218Z,9.45
2019-02-15T14:37:02.472Z,6.17
2019-02-15T14:40:05.011Z,6.50
2019-02-15T14:42:49.733Z,7.97
2019-02-15T14:45:37.482Z,6.25
2019-02-15T14:48:22.196Z,5.17
2019-02-15T14:51:26.100Z,8.35
2019-02-15T14:54:10.943Z,11.45
2019-02-15T14:56:58.744Z,12.78
2019-02-15T14:59:43.818Z,12.35
2019-02-15T15:02:28.537Z,4.62
2019-02-15T15:05:32.379Z,7.20
2019-02-15T15:08:20.782Z,4.25
2019-02-15T15:11:08.292Z,6.17
2019-02-15T15:13:53.124Z,9.50
2019-02-15T15:16:56.658Z,8.28
2019-02-15T15:19:41.477Z,7.73
2019-02-15T15:22:45.343Z,6.07
2019-02-15T15:25:30.282Z,5.70
2019-02-15T15:28:14.906Z,4.43
2019-02-15T15:31:03.142Z,3.43
2019-02-15T15:33:48.080Z,6.97
2019-02-15T15:36:32.755Z,4.37
2019-02-15T15:39:17.606Z,3.63
2019-02-15T15:42:05.541Z,4.73
2019-02-15T15:44:50.299Z,6.07
2019-02-15T15:47:39.384Z,4.00
2019-02-15T15:50:26.827Z,5.60
2019-02-15T15:53:14.746Z,3.83
2019-02-15T15:56:00.041Z,4.93
2019-02-15T15:58:44.759Z,6.10
2019-02-15T16:01:48.309Z,9.63
2019-02-15T16:04:33.306Z,5.30
2019-02-15T16:07:30.566Z,3.70
2019-02-15T16:10:15.488Z,5.23
2019-02-15T16:13:03.201Z,12.50
2019-02-15T16:15:48.316Z,11.23
2019-02-15T16:18:35.057Z,8.53
2019-02-15T16:21:38.792Z,5.30
2019-02-15T16:24:23.842Z,7.83
2019-02-15T16:27:08.783Z,8.43
2019-02-15T16:29:55.596Z,11.80
2019-02-15T16:32:46.864Z,5.70
2019-02-15T16:35:37.954Z,9.80
2019-02-15T16:38:22.659Z,7.40
2019-02-15T16:41:07.575Z,6.60
2019-02-15T16:43:52.461Z,7.13
2019-02-15T16:46:49.715Z,5.20
2019-02-15T16:49:40.845Z,14.27
2019-02-15T16:52:35.086Z,8.47
2019-02-15T16:55:19.968Z,5.67
2019-02-15T16:58:04.989Z,5.30
2019-02-15T17:01:08.284Z,7.80
2019-02-15T17:04:05.617Z,6.63
2019-02-15T17:07:05.925Z,6.33
2019-02-15T17:09:50.708Z,8.73
2019-02-15T17:12:54.076Z,6.10
2019-02-15T17:15:58.451Z,5.43
2019-02-15T17:19:02.044Z,5.73
2019-02-15T17:21:46.941Z,6.97
2019-02-15T17:24:32.020Z,6.47
2019-02-15T17:27:29.177Z,5.93
2019-02-15T17:30:29.568Z,7.87
2019-02-15T17:33:14.424Z,5.57
2019-02-15T17:36:17.934Z,6.70
2019-02-15T17:39:12.075Z,7.57
2019-02-15T17:42:06.289Z,5.57
2019-02-15T17:45:05.876Z,4.70
2019-02-15T17:47:50.353Z,6.33
2019-02-15T17:50:35.406Z,6.80
2019-02-15T17:53:21.131Z,10.17
2019-02-15T17:56:24.708Z,7.40
2019-02-15T17:59:25.115Z,7.53
2019-02-15T18:02:10.048Z,8.33
2019-02-15T18:05:10.720Z,7.20
2019-02-15T18:07:55.465Z,6.90
2019-02-15T18:10:40.276Z,8.57
2019-02-15T18:13:25.099Z,7.77
2019-02-15T18:16:28.829Z,10.33
2019-02-15T18:19:15.707Z,9.00
2019-02-15T18:22:07.501Z,6.93
2019-02-15T18:24:55.467Z,6.07
2019-02-15T18:27:40.565Z,9.77
2019-02-15T18:30:25.374Z,8.43
2019-02-15T18:33:29.059Z,6.50
2019-02-15T18:36:13.940Z,5.63
2019-02-15T18:38:58.941Z,8.37
2019-02-15T18:42:02.595Z,10.33
2019-02-15T18:44:47.560Z,9.10
2019-02-15T18:47:32.282Z,14.23
2019-02-15T18:50:23.215Z,12.20
2019-02-15T18:53:08.061Z,8.87
2019-02-15T18:55:59.187Z,9.07
2019-02-15T18:58:59.515Z,8.13
2019-02-15T19:01:59.811Z,10.20
2019-02-15T19:04:51.061Z,9.43
2019-02-15T19:07:36.052Z,11.10
2019-02-15T19:10:39.355Z,10.63
2019-02-15T19:13:27.293Z,12.50
2019-02-15T19:16:12.248Z,12.53
2019-02-15T19:18:57.105Z,15.17
2019-02-15T19:22:01.076Z,11.73
2019-02-15T19:24:45.829Z,15.63
2019-02-15T19:27:30.584Z,17.57
2019-02-15T19:30:24.904Z,12.67
2019-02-15T19:33:12.701Z,11.10
2019-02-15T19:35:57.430Z,12.60
2019-02-15T19:39:01.276Z,11.33
2019-02-15T19:41:49.496Z,10.53
2019-02-15T19:44:34.227Z,12.53
2019-02-15T19:47:22.109Z,13.90
2019-02-15T19:50:09.696Z,17.37
2019-02-15T19:52:57.121Z,15.00
2019-02-15T19:55:54.609Z,17.73
2019-02-15T19:58:43.677Z,16.07
2019-02-15T20:01:26.735Z,19.10
2019-02-15T20:04:27.124Z,17.10
2019-02-15T20:07:12.080Z,16.33
2019-02-15T20:10:22.273Z,16.97
2019-02-15T20:13:19.657Z,14.63
2019-02-15T20:16:22.850Z,18.03
2019-02-15T20:19:23.147Z,17.60
2019-02-15T20:22:17.261Z,17.33
2019-02-15T20:25:17.706Z,14.67
2019-02-15T20:28:02.502Z,16.80
2019-02-15T20:31:02.993Z,21.73
2019-02-15T20:34:00.720Z,17.40
2019-02-15T20:36:48.230Z,24.47
2019-02-15T20:39:32.932Z,19.20
2019-02-15T20:42:20.764Z,17.37
2019-02-15T20:45:18.103Z,20.17
2019-02-15T20:48:02.489Z,16.37
2019-02-15T20:50:47.366Z,20.57
2019-02-15T20:53:32.242Z,17.40
2019-02-15T20:56:32.525Z,20.23
2019-02-15T20:59:20.405Z,18.40
2019-02-15T21:02:05.275Z,23.33
2019-02-15T21:05:02.535Z,27.43
2019-02-15T21:07:47.280Z,19.33
2019-02-15T21:10:35.287Z,24.03
2019-02-15T21:13:20.751Z,22.73
2019-02-15T21:16:21.273Z,20.20
2019-02-15T21:19:12.457Z,23.70
2019-02-15T21:21:57.432Z,20.00
2019-02-15T21:24:45.055Z,20.73
2019-02-15T21:27:29.982Z,21.10
2019-02-15T21:30:30.125Z,23.50
2019-02-15T21:33:30.536Z,40.90
2019-02-15T21:36:24.799Z,62.43
2019-02-15T21:39:16.035Z,52.80
2019-02-15T21:42:07.182Z,37.67
2019-02-15T21:44:52.107Z,51.77
2019-02-15T21:47:49.235Z,86.53
2019-02-15T21:50:52.430Z,54.20
2019-02-15T21:53:55.598Z,106.80
2019-02-15T21:56:58.993Z,41.27
2019-02-15T21:59:59.387Z,23.87
2019-02-15T22:02:47.163Z,21.23
2019-02-15T22:05:32.243Z,18.40
2019-02-15T22:08:16.997Z,36.80
2019-02-15T22:11:04.859Z,24.63
2019-02-15T22:13:49.833Z,24.67
2019-02-15T22:16:34.772Z,53.77
2019-02-15T22:19:19.797Z,34.93
2019-02-15T22:22:05.065Z,23.20
2019-02-15T22:24:50.175Z,20.77
2019-02-15T22:27:34.815Z,20.47
2019-02-15T22:30:19.689Z,19.03
2019-02-15T22:33:04.574Z,17.87
2019-02-15T22:36:08.423Z,21.67
2019-02-15T22:38:53.339Z,20.53
2019-02-15T22:41:41.537Z,18.40
2019-02-15T22:44:29.276Z,16.80
2019-02-15T22:47:29.545Z,21.23
2019-02-15T22:50:20.757Z,16.33
2019-02-15T22:53:24.033Z,18.73
2019-02-15T22:56:21.252Z,16.50
2019-02-15T22:59:09.291Z,16.37
2019-02-15T23:02:10.323Z,20.40
2019-02-15T23:04:57.704Z,31.10
2019-02-15T23:08:01.197Z,24.47
2019-02-15T23:10:48.693Z,16.07
2019-02-15T23:13:33.106Z,12.33
2019-02-15T23:16:36.627Z,20.30
2019-02-15T23:19:39.797Z,15.20
2019-02-15T23:22:43.178Z,15.17
2019-02-15T23:25:46.425Z,20.17
2019-02-15T23:28:49.852Z,14.87
2019-02-15T23:31:34.449Z,17.23
2019-02-15T23:34:19.193Z,17.63
2019-02-15T23:37:04.226Z,15.30
2019-02-15T23:39:49.333Z,16.27
2019-02-15T23:42:34.010Z,15.97
2019-02-15T23:45:18.686Z,14.53
2019-02-15T23:48:03.228Z,15.63
2019-02-15T23:50:54.865Z,17.00
2019-02-15T23:53:52.698Z,15.13
2019-02-15T23:56:37.165Z,14.27
2019-02-15T23:59:24.796Z,16.57
